Terminal Aerodrome Forecast
Issued by NWS Newport/Morehead City, NC

Home | Current Version | Previous Version | Graphics & Text | Print | Product List | Glossary On
Versions: 1 2 3 4 5 6 7 8 9 10 11 12 13 14 15 16 17 18 19
823
FTUS42 KMHX 172019 AAC
TAFEWN
TAF AMD
KEWN 172019Z 1720/1818 05010KT P6SM VCTS SCT040CB BKN060
      TEMPO 1720/1722 1/2SM +TSRA BKN025CB
     FM172200 04008KT P6SM BKN050
     FM180400 02006KT P6SM OVC005
     FM181500 36010KT P6SM OVC015=

USA.gov is the U.S. government's official web portal to all federal, state and local government web resources and services.